METAR AND TAF INFORMATION
METAR FOR OIAW
ADDS - METARS form results

(2119 UTC 12 August 2020)
Data provider http://aviationweather.gov/metar/data/
 
METAR text: OIAW 122100Z 29008KT CAVOK 36/13 Q0997
Conditions at: OIAW (AHWAZ , IR) observed 2100 UTC 12 August 2020
Temperature: 36.0°C (97°F)
Dewpoint: 13.0°C (55°F) [RH = 25%]
Pressure (altimeter): 29.44 inches Hg (997.0 mb)
Winds: from the WNW (290 degrees) at 9 MPH (8 knots; 4.1 m/s)
Visibility: 6 or more miles (10+ km)
Ceiling: ceiling and visibility are OK
Clouds: unknown
Weather: no significant weather observed at this time

METAR text: OIAW 122050Z 29008KT CAVOK 36/13 Q0997
Conditions at: OIAW (AHWAZ , IR) observed 2050 UTC 12 August 2020
Temperature: 36.0°C (97°F)
Dewpoint: 13.0°C (55°F) [RH = 25%]
Pressure (altimeter): 29.44 inches Hg (997.0 mb)
Winds: from the WNW (290 degrees) at 9 MPH (8 knots; 4.1 m/s)
Visibility: 6 or more miles (10+ km)
Ceiling: ceiling and visibility are OK
Clouds: unknown
Weather: no significant weather observed at this time

METAR text: OIAW 122030Z 28006KT CAVOK 36/13 Q0997
Conditions at: OIAW (AHWAZ , IR) observed 2030 UTC 12 August 2020
Temperature: 36.0°C (97°F)
Dewpoint: 13.0°C (55°F) [RH = 25%]
Pressure (altimeter): 29.44 inches Hg (997.0 mb)
Winds: from the W (280 degrees) at 7 MPH (6 knots; 3.1 m/s)
Visibility: 6 or more miles (10+ km)
Ceiling: ceiling and visibility are OK
Clouds: unknown
Weather: no significant weather observed at this time

METAR text: OIAW 122026Z 28006KT CAVOK 36/13 Q0997
Conditions at: OIAW (AHWAZ , IR) observed 2026 UTC 12 August 2020
Temperature: 36.0°C (97°F)
Dewpoint: 13.0°C (55°F) [RH = 25%]
Pressure (altimeter): 29.44 inches Hg (997.0 mb)
Winds: from the W (280 degrees) at 7 MPH (6 knots; 3.1 m/s)
Visibility: 6 or more miles (10+ km)
Ceiling: ceiling and visibility are OK
Clouds: unknown
Weather: no significant weather observed at this time

Forecast for: OIAW (AHWAZ , IR)
Text: TAF OIAW 121730Z 1218/1324 28008KT 8000 NSC
Forecast period: 1800 UTC 12 August 2020 to 0000 UTC 14 August 2020
Forecast type: FROM: standard forecast or significant change
Winds: from the W (280 degrees) at 9 MPH (8 knots; 4.1 m/s)
Visibility: 5 miles (8 km)
Ceiling: unknown
Clouds: missing
Weather: no significant weather forecast for this period

 AIRPORT MAP

 RUNWAY INFORMATION
Runway 12 Runway length 11149 ft Runway width 148 ft
Runway elevation 66 ft Runway displaced threshold 0 ft Runway heading 124
Runway 30 Runway length 11149 ft Runway width 148 ft
Runway elevation 59 ft Runway displaced threshold 0 ft Runway heading 304

 AIRPORT FREQUENCIES
Type ATIS Name ATIS Frequency 126.4 MHZ
Type TWR Name TWR Frequency 121.1 MHZ

 AIRPORT NEAR NAVIGATION AIDS
Type VOR-DME Name Ahwaz Frequency 114000 KHZ
Type NDB Name Ahwaz Frequency 415 KHZ



Copyright @ Zagros Virtual Airline